Time;durP1;ratioP1;P1;durP2;ratioP2;P2;SDS_P1;SDS_P2;PMS_P1;PMS_P2;Temp;Humidity;BMP_temperature;BMP_pressure;BME280_temperature;BME280_humidity;BME280_pressure;Samples;Min_cycle;Max_cycle;Signal;HPM_P1;HPM_P2
2022/12/30 00:00:05;;;;;;;10.10;4.27;;;;;;;10.06;nan;102363.19;4885478;29;20842;-89
2022/12/30 00:02:35;;;;;;;20.33;8.90;;;;;;;9.99;nan;102354.75;4877463;29;20470;-89
2022/12/30 00:05:07;;;;;;;24.93;8.57;;;;;;;10.03;nan;102356.16;4855139;29;20462;-89
2022/12/30 00:07:44;;;;;;;23.63;9.87;;;;;;;9.99;nan;102354.75;4875912;29;20465;-88
2022/12/30 00:10:19;;;;;;;24.37;10.30;;;;;;;9.94;nan;102346.16;4813911;29;20444;-88
2022/12/30 00:35:21;;;;;;;10.33;2.57;;;;;;;9.66;nan;102337.06;4887553;29;20936;-89
2022/12/30 00:37:49;;;;;;;11.47;3.20;;;;;;;9.63;nan;102323.69;4869686;29;20450;-89
2022/12/30 00:40:22;;;;;;;4.83;2.60;;;;;;;9.67;nan;102333.31;4885408;29;20441;-89
2022/12/30 00:43:08;;;;;;;8.97;2.83;;;;;;;9.67;nan;102336.03;4871655;29;20499;-90
2022/12/30 00:45:42;;;;;;;17.97;3.13;;;;;;;9.56;nan;102322.59;4895302;29;20462;-89
2022/12/30 00:57:00;;;;;;;6.37;2.60;;;;;;;9.46;nan;102309.97;4881185;29;20541;-89
2022/12/30 00:59:34;;;;;;;7.13;2.90;;;;;;;9.51;nan;102324.03;4850568;29;20458;-88
2022/12/30 01:02:03;;;;;;;6.83;3.60;;;;;;;9.51;nan;102315.84;4850183;29;20823;-88
2022/12/30 01:04:39;;;;;;;13.63;5.70;;;;;;;9.56;nan;102319.84;4868231;29;20956;-89
2022/12/30 01:07:09;;;;;;;13.90;6.70;;;;;;;9.54;nan;102308.22;4899561;29;20829;-89
2022/12/30 01:09:47;;;;;;;13.43;4.77;;;;;;;9.58;nan;102315.13;4869627;29;20869;-88
2022/12/30 01:12:15;;;;;;;9.00;3.07;;;;;;;9.49;nan;102306.94;4891636;29;20481;-89
2022/12/30 01:14:50;;;;;;;8.50;3.00;;;;;;;9.42;nan;102306.69;4865819;29;20979;-89
2022/12/30 01:17:25;;;;;;;5.10;2.50;;;;;;;9.41;nan;102306.84;4882510;29;20504;-89
2022/12/30 01:19:59;;;;;;;10.87;2.70;;;;;;;9.33;nan;102297.50;4881755;29;20956;-89
2022/12/30 01:22:29;;;;;;;9.50;2.60;;;;;;;9.39;nan;102315.16;4883401;29;20551;-89
2022/12/30 01:24:59;;;;;;;7.67;2.00;;;;;;;9.34;nan;102293.78;4898750;29;20806;-89
2022/12/30 01:27:30;;;;;;;8.87;2.10;;;;;;;9.38;nan;102302.53;4883118;29;20462;-89
2022/12/30 01:30:17;;;;;;;5.80;1.90;;;;;;;9.38;nan;102299.81;4883791;29;20953;-89
2022/12/30 01:33:13;;;;;;;7.90;3.03;;;;;;;9.39;nan;102295.22;4881359;29;20472;-89
2022/12/30 01:35:50;;;;;;;10.87;3.50;;;;;;;9.41;nan;102298.66;4898315;29;20481;-89
2022/12/30 01:38:20;;;;;;;16.23;3.30;;;;;;;9.40;nan;102292.34;4900071;29;20860;-88
2022/12/30 01:40:52;;;;;;;11.13;2.33;;;;;;;9.40;nan;102286.88;4887424;29;20442;-90
2022/12/30 01:43:19;;;;;;;4.67;2.37;;;;;;;9.34;nan;102293.78;4922617;29;20440;-88
2022/12/30 01:45:49;;;;;;;7.47;1.90;;;;;;;9.32;nan;102289.47;4905423;29;20439;-90
2022/12/30 01:48:28;;;;;;;16.47;2.50;;;;;;;9.31;nan;102290.47;4883331;29;20453;-89
2022/12/30 01:51:23;;;;;;;8.70;1.83;;;;;;;9.16;nan;102270.13;4867863;29;20461;-89
2022/12/30 01:53:53;;;;;;;4.07;2.00;;;;;;;9.26;nan;102281.88;4867729;29;20824;-89
2022/12/30 01:56:27;;;;;;;6.53;1.93;;;;;;;9.30;nan;102292.34;4880870;29;20485;-90
2022/12/30 01:59:04;;;;;;;6.73;2.40;;;;;;;9.31;nan;102287.75;4891899;29;20464;-89
2022/12/30 02:01:32;;;;;;;14.93;6.73;;;;;;;9.27;nan;102278.13;4882844;29;20461;-89
2022/12/30 02:04:19;;;;;;;11.23;6.37;;;;;;;9.30;nan;102275.13;4852966;29;20465;-89
2022/12/30 02:06:58;;;;;;;22.07;6.47;;;;;;;9.34;nan;102284.72;4882723;29;21324;-89
2022/12/30 02:09:33;;;;;;;13.97;5.70;;;;;;;9.31;nan;102272.25;4882478;29;20453;-89
2022/12/30 02:12:06;;;;;;;10.03;4.87;;;;;;;9.34;nan;102282.88;4894227;29;20472;-89
2022/12/30 02:14:37;;;;;;;13.53;5.60;;;;;;;9.31;nan;102271.38;4863911;29;20458;-89
2022/12/30 02:17:31;;;;;;;17.67;3.87;;;;;;;9.34;nan;102282.88;4833622;29;20486;-89
2022/12/30 02:20:20;;;;;;;5.57;2.50;;;;;;;9.26;nan;102270.97;4878331;29;20467;-89
2022/12/30 02:23:09;;;;;;;4.73;2.30;;;;;;;9.21;nan;102270.56;4862043;29;20569;-89
2022/12/30 02:25:57;;;;;;;4.63;2.20;;;;;;;9.18;nan;102276.31;4875457;29;20457;-89
2022/12/30 02:28:43;;;;;;;4.50;1.60;;;;;;;9.15;nan;102271.13;4878269;29;20493;-89
2022/12/30 02:31:48;;;;;;;5.63;1.60;;;;;;;9.12;nan;102272.28;4870434;29;20838;-89
2022/12/30 02:34:38;;;;;;;3.30;1.47;;;;;;;9.15;nan;102282.06;4879910;29;20458;-89
2022/12/30 02:37:08;;;;;;;6.67;2.00;;;;;;;9.17;nan;102280.03;4866182;29;20493;-89
2022/12/30 02:40:09;;;;;;;8.97;3.30;;;;;;;9.18;nan;102271.72;4879335;29;20832;-89
2022/12/30 02:45:46;;;;;;;7.27;4.30;;;;;;;9.24;nan;102275.69;4863571;29;20828;-89
2022/12/30 02:48:18;;;;;;;12.20;5.07;;;;;;;9.24;nan;102264.78;4834688;29;20451;-89
2022/12/30 02:53:42;;;;;;;10.50;5.50;;;;;;;9.16;nan;102251.91;4860930;29;20455;-89
2022/12/30 02:56:15;;;;;;;7.93;3.80;;;;;;;9.14;nan;102256.66;4830495;29;20479;-89
2022/12/30 03:03:56;;;;;;;5.83;2.57;;;;;;;9.19;nan;102267.13;4844458;29;20969;-89
2022/12/30 03:05:00;;;;;;;8.40;2.63;;;;;;;9.15;nan;102266.56;4866177;29;20900;-89
2022/12/30 03:07:28;;;;;;;13.80;3.90;;;;;;;9.17;nan;102266.41;4880442;29;20451;-88
2022/12/30 03:13:24;;;;;;;8.37;4.60;;;;;;;9.15;nan;102254.78;4857803;29;20473;-88
2022/12/30 03:15:59;;;;;;;14.87;5.20;;;;;;;9.17;nan;102264.53;4860758;29;20477;-89
2022/12/30 03:18:28;;;;;;;10.10;4.90;;;;;;;9.17;nan;102263.69;4863772;29;20474;-89
2022/12/30 03:21:10;;;;;;;9.37;2.73;;;;;;;9.16;nan;102259.22;4876444;29;20450;-89
2022/12/30 03:27:03;;;;;;;3.00;1.57;;;;;;;9.07;nan;102251.91;4885347;29;20481;-89
2022/12/30 03:30:02;;;;;;;4.30;2.20;;;;;;;9.06;nan;102256.50;4851362;29;20466;-89
2022/12/30 03:32:30;;;;;;;3.53;1.40;;;;;;;9.05;nan;102254.78;4894099;29;20454;-89
2022/12/30 03:34:59;;;;;;;7.50;1.60;;;;;;;9.03;nan;102258.69;4856938;29;20461;-88
2022/12/30 03:37:51;;;;;;;9.40;5.80;;;;;;;9.03;nan;102254.09;4864362;29;20481;-89
2022/12/30 03:40:35;;;;;;;15.20;5.67;;;;;;;9.08;nan;102264.53;4856865;29;20970;-89
2022/12/30 03:43:20;;;;;;;13.57;3.97;;;;;;;9.11;nan;102269.72;4863451;29;20470;-89
2022/12/30 03:45:48;;;;;;;12.00;3.57;;;;;;;9.09;nan;102275.31;4865240;29;20466;-89
2022/12/30 03:48:24;;;;;;;13.30;4.70;;;;;;;9.13;nan;102271.28;4851498;29;20465;-89
2022/12/30 03:50:53;;;;;;;9.97;4.50;;;;;;;9.14;nan;102274.88;4869320;29;20956;-90
2022/12/30 03:53:29;;;;;;;7.97;4.47;;;;;;;9.11;nan;102258.78;4866845;29;20953;-89
2022/12/30 03:56:04;;;;;;;13.47;4.73;;;;;;;9.18;nan;102273.59;4869824;29;20454;-88
2022/12/30 03:58:41;;;;;;;9.80;5.20;;;;;;;9.18;nan;102262.66;4854618;29;20987;-88
2022/12/30 04:01:11;;;;;;;12.67;4.20;;;;;;;9.20;nan;102260.66;4866727;29;20454;-89
2022/12/30 04:03:46;;;;;;;4.23;2.57;;;;;;;9.23;nan;102260.38;4850988;29;20467;-88
2022/12/30 04:06:26;;;;;;;4.47;2.13;;;;;;;9.25;nan;102261.91;4850834;29;20450;-88
2022/12/30 04:09:01;;;;;;;4.77;1.83;;;;;;;9.26;nan;102268.22;4881626;29;20458;-89
2022/12/30 04:11:30;;;;;;;10.23;4.30;;;;;;;9.22;nan;102248.59;4884915;29;20460;-89
2022/12/30 04:13:57;;;;;;;9.30;4.43;;;;;;;9.25;nan;102258.31;4884206;29;20696;-88
2022/12/30 04:16:27;;;;;;;16.83;6.97;;;;;;;9.28;nan;102255.31;4831687;29;20452;-89
2022/12/30 04:19:04;;;;;;;21.37;8.47;;;;;;;9.33;nan;102253.00;4831246;29;20474;-89
2022/12/30 04:21:44;;;;;;;16.70;8.20;;;;;;;9.31;nan;102249.56;4828768;29;20459;-89
2022/12/30 04:24:13;;;;;;;17.63;7.33;;;;;;;9.35;nan;102249.13;4846060;29;20471;-89
2022/12/30 04:26:53;;;;;;;9.30;4.13;;;;;;;9.35;nan;102240.06;4831581;29;20967;-89
2022/12/30 04:29:22;;;;;;;6.30;2.60;;;;;;;9.36;nan;102252.72;4830785;29;20459;-88
2022/12/30 04:32:00;;;;;;;16.93;6.33;;;;;;;9.32;nan;102251.28;4831368;29;20460;-88
2022/12/30 04:34:28;;;;;;;13.30;6.40;;;;;;;9.34;nan;102252.00;4863269;29;20464;-89
2022/12/30 04:36:57;;;;;;;12.97;5.37;;;;;;;9.34;nan;102250.13;4884273;29;20496;-89
2022/12/30 04:39:27;;;;;;;9.10;4.40;;;;;;;9.35;nan;102253.72;4867458;29;20824;-89
2022/12/30 04:41:56;;;;;;;7.87;4.43;;;;;;;9.36;nan;102241.78;4854246;29;20458;-89
2022/12/30 04:44:24;;;;;;;13.93;4.60;;;;;;;9.32;nan;102238.50;4899450;29;20466;-89
2022/12/30 04:46:53;;;;;;;10.83;4.87;;;;;;;9.31;nan;102227.72;4884116;29;20461;-89
2022/12/30 04:49:23;;;;;;;6.87;2.73;;;;;;;9.33;nan;102231.16;4882531;29;20568;-89
2022/12/30 04:51:57;;;;;;;7.50;3.40;;;;;;;9.31;nan;102227.72;4884260;29;20919;-89
2022/12/30 04:54:28;;;;;;;7.70;3.57;;;;;;;9.29;nan;102232.47;4868817;29;20461;-89
2022/12/30 04:57:01;;;;;;;8.30;4.00;;;;;;;9.32;nan;102232.19;4884107;29;20485;-89
2022/12/30 04:59:29;;;;;;;9.90;4.33;;;;;;;9.24;nan;102219.28;4884046;29;20446;-89
2022/12/30 05:02:04;;;;;;;10.47;4.10;;;;;;;9.27;nan;102227.16;4794590;29;20584;-89
2022/12/30 05:04:39;;;;;;;12.80;3.83;;;;;;;9.25;nan;102233.78;4824866;29;20501;-89
2022/12/30 05:07:15;;;;;;;14.33;3.80;;;;;;;9.27;nan;102238.06;4809769;29;20440;-89
2022/12/30 05:09:45;;;;;;;8.77;3.20;;;;;;;9.26;nan;102230.91;4809282;29;20445;-89
2022/12/30 05:12:15;;;;;;;16.67;3.23;;;;;;;9.25;nan;102228.31;4809154;29;20476;-89
2022/12/30 05:14:45;;;;;;;13.00;3.27;;;;;;;9.27;nan;102226.31;4823856;29;20445;-89
2022/12/30 05:17:24;;;;;;;9.80;3.43;;;;;;;9.24;nan;102222.00;4813302;29;20506;-89
2022/12/30 05:19:51;;;;;;;21.20;7.03;;;;;;;9.27;nan;102232.63;4846098;29;20462;-89
2022/12/30 05:22:23;;;;;;;25.10;8.80;;;;;;;9.31;nan;102238.66;4865358;29;20462;-89
2022/12/30 05:27:39;;;;;;;20.30;6.70;;;;;;;9.27;nan;102226.31;4883983;29;20835;-89
2022/12/30 05:30:10;;;;;;;29.10;7.80;;;;;;;9.30;nan;102231.47;4840854;29;20469;-89
2022/12/30 05:32:38;;;;;;;21.13;5.90;;;;;;;9.28;nan;102230.75;4868006;29;20458;-89
2022/12/30 05:35:07;;;;;;;24.77;6.00;;;;;;;9.22;nan;102228.63;4883592;29;20445;-89
2022/12/30 05:37:36;;;;;;;12.10;5.73;;;;;;;9.31;nan;102238.66;4867892;29;20492;-89
2022/12/30 05:40:10;;;;;;;16.93;6.50;;;;;;;9.32;nan;102232.19;4897745;29;20450;-88
2022/12/30 05:42:40;;;;;;;16.63;6.57;;;;;;;9.25;nan;102225.59;4882882;29;20465;-88
2022/12/30 05:45:23;;;;;;;23.47;7.60;;;;;;;9.29;nan;102224.28;4867088;29;20465;-89
2022/12/30 05:47:51;;;;;;;13.83;6.10;;;;;;;9.32;nan;102234.91;4867971;29;20461;-89
2022/12/30 05:50:20;;;;;;;12.03;5.63;;;;;;;9.31;nan;102228.59;4863629;29;20500;-89
2022/12/30 05:52:49;;;;;;;21.03;7.53;;;;;;;9.28;nan;102228.03;4849755;29;20470;-89
2022/12/30 05:55:20;;;;;;;16.90;6.60;;;;;;;9.31;nan;102233.19;4864321;29;20455;-89
2022/12/30 05:57:54;;;;;;;10.80;5.23;;;;;;;9.29;nan;102229.75;4809423;29;20477;-88
2022/12/30 06:00:29;;;;;;;21.90;5.70;;;;;;;9.23;nan;102235.81;4808645;29;20472;-89
2022/12/30 06:03:03;;;;;;;14.83;5.60;;;;;;;9.25;nan;102241.94;4808713;29;20445;-89
2022/12/30 06:05:36;;;;;;;11.37;5.60;;;;;;;9.25;nan;102245.53;4801216;29;20476;-89
2022/12/30 06:08:11;;;;;;;11.20;5.90;;;;;;;9.23;nan;102246.72;4793828;29;20453;-89
2022/12/30 06:10:41;;;;;;;9.60;4.00;;;;;;;9.21;nan;102244.16;4788519;29;20457;-89
2022/12/30 06:13:09;;;;;;;12.00;3.50;;;;;;;9.15;nan;102243.88;4807936;29;20477;-89
2022/12/30 06:15:40;;;;;;;10.43;3.13;;;;;;;9.13;nan;102251.34;4796246;29;20453;-89
2022/12/30 06:18:08;;;;;;;12.93;3.30;;;;;;;9.07;nan;102249.19;4837883;29;20610;-89
2022/12/30 06:20:36;;;;;;;7.27;2.87;;;;;;;9.11;nan;102261.53;4808086;29;20458;-89
2022/12/30 06:23:05;;;;;;;12.80;3.07;;;;;;;9.10;nan;102262.53;4849125;29;20459;-89
2022/12/30 06:25:33;;;;;;;9.47;4.67;;;;;;;9.09;nan;102261.66;4863903;29;20459;-88
2022/12/30 06:28:02;;;;;;;12.73;4.20;;;;;;;8.99;nan;102250.81;4851233;29;20454;-88
2022/12/30 06:30:32;;;;;;;10.33;3.83;;;;;;;9.07;nan;102260.94;4882064;29;20980;-89
2022/12/30 06:33:03;;;;;;;14.40;3.70;;;;;;;9.04;nan;102263.13;4882463;29;20461;-88
2022/12/30 06:35:32;;;;;;;9.50;4.20;;;;;;;9.02;nan;102265.16;4878425;29;20474;-89
2022/12/30 06:38:01;;;;;;;8.80;3.17;;;;;;;9.05;nan;102275.75;4857877;29;20497;-89
2022/12/30 06:40:30;;;;;;;10.07;3.70;;;;;;;9.02;nan;102273.34;4879131;29;20461;-89
2022/12/30 06:43:00;;;;;;;8.27;3.90;;;;;;;9.01;nan;102283.38;4879534;29;20845;-89
2022/12/30 06:45:31;;;;;;;8.40;3.40;;;;;;;8.99;nan;102286.25;4857661;29;20488;-88
2022/12/30 06:47:59;;;;;;;6.73;3.40;;;;;;;8.95;nan;102282.09;4848641;29;20460;-89
2022/12/30 06:50:29;;;;;;;10.97;3.20;;;;;;;8.93;nan;102278.63;4849273;29;20869;-88
2022/12/30 06:52:58;;;;;;;13.40;3.73;;;;;;;8.95;nan;102282.09;4865686;29;20466;-89
2022/12/30 06:55:28;;;;;;;8.03;3.23;;;;;;;8.93;nan;102289.53;4868661;29;20459;-89
2022/12/30 06:58:06;;;;;;;5.37;2.50;;;;;;;8.91;nan;102297.00;4864054;29;20520;-89
2022/12/30 07:00:34;;;;;;;5.67;2.30;;;;;;;8.87;nan;102292.84;4873400;29;20455;-89
2022/12/30 07:03:05;;;;;;;6.20;2.30;;;;;;;8.77;nan;102289.28;4867362;29;20454;-89
2022/12/30 07:05:40;;;;;;;8.13;2.77;;;;;;;8.77;nan;102305.63;4890668;29;20453;-89
2022/12/30 07:08:16;;;;;;;5.80;3.00;;;;;;;8.77;nan;102302.03;4885241;29;20448;-89
2022/12/30 07:10:50;;;;;;;10.97;2.50;;;;;;;8.75;nan;102313.09;4867338;29;20513;-89
2022/12/30 07:13:19;;;;;;;10.43;3.63;;;;;;;8.65;nan;102290.44;4866520;29;20634;-89
2022/12/30 07:15:47;;;;;;;12.53;4.80;;;;;;;8.76;nan;102308.50;4881762;29;20454;-89
2022/12/30 07:18:35;;;;;;;14.57;5.03;;;;;;;8.78;nan;102301.91;4847645;29;20498;-90
2022/12/30 07:21:35;;;;;;;12.40;5.93;;;;;;;8.84;nan;102316.84;4885373;29;20466;-90
2022/12/30 07:24:58;;;;;;;10.60;5.20;;;;;;;8.86;nan;102315.66;4902127;29;20472;-89
2022/12/30 07:27:34;;;;;;;10.20;3.80;;;;;;;8.87;nan;102319.25;4875426;29;20465;-90
2022/12/30 07:30:03;;;;;;;22.53;8.40;;;;;;;8.85;nan;102319.38;4904039;29;20473;-88
2022/12/30 07:32:31;;;;;;;19.97;5.90;;;;;;;8.87;nan;102314.66;4876999;29;20454;-88
2022/12/30 07:34:58;;;;;;;13.27;4.67;;;;;;;8.86;nan;102314.78;4890285;29;20434;-88
2022/12/30 07:37:32;;;;;;;14.10;4.80;;;;;;;8.88;nan;102324.56;4880301;29;20466;-91
2022/12/30 07:40:03;;;;;;;8.70;4.10;;;;;;;8.83;nan;102320.56;4876807;29;20461;-94
2022/12/30 07:42:56;;;;;;;7.70;3.53;;;;;;;8.86;nan;102329.28;4877910;29;20601;-93
2022/12/30 07:45:26;;;;;;;6.83;2.93;;;;;;;8.75;nan;102324.00;4889195;29;20462;-93
2022/12/30 07:48:11;;;;;;;8.23;2.37;;;;;;;8.85;nan;102352.09;4887450;29;20468;-90
2022/12/30 07:51:19;;;;;;;4.73;2.70;;;;;;;8.87;nan;102351.97;4870277;29;20826;-90
2022/12/30 07:53:47;;;;;;;4.50;1.90;;;;;;;8.85;nan;102349.38;4867307;29;20465;-89
2022/12/30 07:56:21;;;;;;;12.90;2.70;;;;;;;8.92;nan;102358.72;4852062;29;20467;-89
2022/12/30 07:58:48;;;;;;;13.93;3.30;;;;;;;8.93;nan;102360.44;4866529;29;20993;-90
2022/12/30 08:01:41;;;;;;;13.30;2.87;;;;;;;8.95;nan;102352.97;4877154;29;20816;-89
2022/12/30 08:04:14;;;;;;;12.23;3.80;;;;;;;8.96;nan;102354.69;4882056;29;20493;-89
2022/12/30 08:07:06;;;;;;;12.47;4.47;;;;;;;8.94;nan;102353.13;4892362;29;20433;-90
2022/12/30 08:10:03;;;;;;;11.30;4.07;;;;;;;9.00;nan;102364.31;4866718;29;20450;-90
2022/12/30 08:12:34;;;;;;;15.50;4.00;;;;;;;9.02;nan;102360.59;4866657;29;20458;-90
2022/12/30 08:15:17;;;;;;;7.30;3.80;;;;;;;9.06;nan;102365.59;4856002;29;20538;-90
2022/12/30 08:17:50;;;;;;;12.40;4.53;;;;;;;9.06;nan;102371.03;4851909;29;20533;-90
2022/12/30 08:23:38;;;;;;;17.43;4.10;;;;;;;9.16;nan;102373.78;4883111;29;20446;-90
2022/12/30 08:26:17;;;;;;;13.90;4.03;;;;;;;9.20;nan;102375.22;4851190;29;20461;-90
2022/12/30 08:28:50;;;;;;;19.40;4.50;;;;;;;9.27;nan;102370.88;4863254;29;20465;-90
2022/12/30 08:31:20;;;;;;;9.70;3.60;;;;;;;9.26;nan;102360.97;4865788;29;20984;-88
2022/12/30 08:34:18;;;;;;;16.27;3.43;;;;;;;9.37;nan;102376.34;4861082;29;20497;-90
2022/12/30 08:36:48;;;;;;;9.10;2.47;;;;;;;9.46;nan;102389.09;4881509;29;20462;-90
2022/12/30 08:39:17;;;;;;;5.40;1.90;;;;;;;9.51;nan;102379.47;4896012;29;20482;-92
2022/12/30 08:42:00;;;;;;;6.47;2.70;;;;;;;9.65;nan;102376.28;4881123;29;20461;-92
2022/12/30 08:44:28;;;;;;;18.60;6.37;;;;;;;9.82;nan;102390.16;4851102;29;20463;-91
2022/12/30 08:46:57;;;;;;;11.63;5.20;;;;;;;9.92;nan;102385.53;4859930;29;20465;-92
2022/12/30 08:49:31;;;;;;;10.77;4.30;;;;;;;10.08;nan;102396.69;4884296;29;20461;-91
2022/12/30 08:51:58;;;;;;;45.53;16.67;;;;;;;10.20;nan;102395.50;4881826;29;20454;-91
2022/12/30 08:54:27;;;;;;;41.80;19.43;;;;;;;10.28;nan;102394.75;4865848;29;20443;-90
2022/12/30 08:56:54;;;;;;;27.03;12.93;;;;;;;10.28;nan;102379.22;4878135;29;20461;-90
2022/12/30 08:59:28;;;;;;;23.80;8.47;;;;;;;10.47;nan;102391.06;4884376;29;20489;-88
2022/12/30 09:01:56;;;;;;;12.57;7.00;;;;;;;10.58;nan;102399.06;4868912;29;20454;-87
2022/12/30 09:04:31;;;;;;;16.37;6.73;;;;;;;10.69;nan;102401.59;4899680;29;20468;-90
2022/12/30 09:07:06;;;;;;;11.60;5.97;;;;;;;10.78;nan;102386.09;4854003;29;20438;-90
2022/12/30 09:10:03;;;;;;;15.27;7.00;;;;;;;10.91;nan;102378.41;4861740;29;21040;-91
2022/12/30 09:12:36;;;;;;;10.17;6.13;;;;;;;11.07;nan;102384.88;4852890;29;20465;-88
2022/12/30 09:15:06;;;;;;;11.70;6.27;;;;;;;11.16;nan;102376.75;4850647;29;20451;-90
2022/12/30 09:17:35;;;;;;;11.93;6.43;;;;;;;11.34;nan;102385.81;4846107;29;20527;-91
2022/12/30 09:20:22;;;;;;;15.93;6.00;;;;;;;11.52;nan;102383.91;4774254;30;20493;-94
2022/12/30 09:26:31;;;;;;;30.13;12.63;;;;;;;11.87;nan;102382.09;4806576;29;20440;-91
2022/12/30 09:29:04;;;;;;;24.77;9.33;;;;;;;12.04;nan;102383.91;4779172;30;20475;-90
2022/12/30 09:31:42;;;;;;;21.20;6.90;;;;;;;12.23;nan;102394.63;4774651;29;20698;-91
2022/12/30 09:34:12;;;;;;;11.97;5.57;;;;;;;12.41;nan;102381.69;4806635;29;20450;-93
2022/12/30 09:36:48;;;;;;;11.47;5.70;;;;;;;12.64;nan;102383.81;4791606;29;20458;-92
2022/12/30 09:39:17;;;;;;;19.57;6.67;;;;;;;12.83;nan;102374.44;4790975;29;20538;-89
2022/12/30 09:44:58;;;;;;;54.17;18.70;;;;;;;13.25;nan;102388.91;4841575;29;20934;-90
2022/12/30 09:47:27;;;;;;;45.77;23.53;;;;;;;13.34;nan;102365.03;4863122;29;20463;-88
2022/12/30 09:50:05;;;;;;;44.40;23.40;;;;;;;13.62;nan;102377.41;4864115;29;20962;-87
2022/12/30 09:52:42;;;;;;;36.27;20.93;;;;;;;13.82;nan;102378.75;4843496;29;20481;-87
2022/12/30 09:55:21;;;;;;;41.73;25.03;;;;;;;13.96;nan;102368.91;4847170;29;20459;-88
2022/12/30 09:57:52;;;;;;;39.53;23.67;;;;;;;14.15;nan;102385.00;4863707;29;20459;-88
2022/12/30 10:00:22;;;;;;;36.43;21.33;;;;;;;14.28;nan;102380.81;4833955;29;20985;-87
2022/12/30 10:03:11;;;;;;;27.70;15.77;;;;;;;14.45;nan;102379.72;4833236;29;20492;-87
2022/12/30 10:06:14;;;;;;;34.93;16.50;;;;;;;14.64;nan;102400.44;4841969;29;20447;-88
2022/12/30 10:09:15;;;;;;;38.60;19.23;;;;;;;14.81;nan;102397.44;4849330;29;20466;-87
2022/12/30 10:11:53;;;;;;;21.10;8.90;;;;;;;14.92;nan;102401.66;4850750;29;20468;-87
2022/12/30 10:14:49;;;;;;;19.67;9.30;;;;;;;15.11;nan;102409.47;4846749;29;20478;-87
2022/12/30 10:18:01;;;;;;;51.43;15.07;;;;;;;15.23;nan;102411.78;4867208;29;20458;-88
2022/12/30 10:20:57;;;;;;;65.20;23.97;;;;;;;15.38;nan;102409.97;4884817;29;20460;-88
2022/12/30 10:24:16;;;;;;;29.33;8.80;;;;;;;15.46;nan;102404.34;4881595;29;20442;-88
2022/12/30 10:26:48;;;;;;;15.87;5.17;;;;;;;15.51;nan;102405.53;4841077;29;20461;-88
2022/12/30 10:29:32;;;;;;;13.13;4.50;;;;;;;15.64;nan;102404.06;4796088;29;20464;-88
2022/12/30 10:32:21;;;;;;;12.50;4.20;;;;;;;15.75;nan;102406.38;4840951;29;20506;-88
2022/12/30 10:34:56;;;;;;;12.77;4.27;;;;;;;15.93;nan;102397.75;4804297;29;20454;-88
2022/12/30 10:37:32;;;;;;;13.57;4.40;;;;;;;16.12;nan;102391.69;4789440;29;20461;-88
2022/12/30 10:40:07;;;;;;;12.63;4.07;;;;;;;16.27;nan;102400.81;4804147;29;20502;-88
2022/12/30 10:43:19;;;;;;;50.77;22.87;;;;;;;16.39;nan;102395.66;4791895;29;20568;-88
2022/12/30 10:46:09;;;;;;;70.73;38.17;;;;;;;16.62;nan;102406.56;4789448;29;20466;-88
2022/12/30 10:48:55;;;;;;;51.20;31.80;;;;;;;16.75;nan;102404.00;4803864;29;20479;-87
2022/12/30 10:51:24;;;;;;;52.00;30.57;;;;;;;16.78;nan;102389.81;4804064;29;20515;-88
2022/12/30 10:53:52;;;;;;;28.60;16.53;;;;;;;16.94;nan;102397.84;4807547;29;20835;-88
2022/12/30 10:56:27;;;;;;;22.87;8.20;;;;;;;17.02;nan;102396.88;4795987;29;20448;-87
2022/12/30 10:59:01;;;;;;;22.90;8.20;;;;;;;17.14;nan;102393.38;4810794;29;20495;-87
2022/12/30 11:01:31;;;;;;;13.10;6.00;;;;;;;17.20;nan;102389.84;4817537;29;20461;-88
2022/12/30 11:04:01;;;;;;;31.13;16.83;;;;;;;17.22;nan;102371.16;4853749;29;20454;-88
2022/12/30 11:06:37;;;;;;;25.33;8.87;;;;;;;17.39;nan;102393.00;4885736;29;20453;-88
2022/12/30 11:09:13;;;;;;;10.97;4.37;;;;;;;17.53;nan;102389.28;4870672;29;20457;-88
2022/12/30 11:15:13;;;;;;;23.37;4.07;;;;;;;17.73;nan;102382.03;4883071;29;20454;-88
2022/12/30 11:17:49;;;;;;;10.40;2.80;;;;;;;17.81;nan;102378.28;4851468;29;21069;-88
2022/12/30 11:20:35;;;;;;;13.03;3.40;;;;;;;17.88;nan;102374.53;4851428;29;20500;-88
2022/12/30 11:23:24;;;;;;;12.10;4.70;;;;;;;17.94;nan;102373.69;4852160;29;21033;-88
2022/12/30 11:25:54;;;;;;;9.70;3.27;;;;;;;18.07;nan;102372.09;4854020;29;20466;-88
2022/12/30 11:28:25;;;;;;;8.83;3.50;;;;;;;18.09;nan;102365.25;4869171;29;20458;-88
2022/12/30 11:30:53;;;;;;;7.80;3.27;;;;;;;18.19;nan;102365.75;4867018;29;20465;-88
2022/12/30 11:33:23;;;;;;;11.27;3.70;;;;;;;18.27;nan;102360.06;4866222;29;20950;-89
2022/12/30 11:35:51;;;;;;;13.80;4.43;;;;;;;18.32;nan;102359.44;4869473;29;20467;-88
2022/12/30 11:38:30;;;;;;;13.87;5.70;;;;;;;18.39;nan;102360.31;4866719;29;20454;-88
2022/12/30 11:41:23;;;;;;;12.00;3.40;;;;;;;18.42;nan;102342.47;4851211;29;20802;-88
2022/12/30 11:44:06;;;;;;;21.33;11.50;;;;;;;18.34;nan;102332.41;4868732;29;20948;-88
2022/12/30 11:46:46;;;;;;;91.37;53.23;;;;;;;18.50;nan;102362.50;4868645;29;20546;-88
2022/12/30 11:49:19;;;;;;;107.37;53.63;;;;;;;18.55;nan;102350.81;4866590;29;20946;-88
2022/12/30 11:51:49;;;;;;;218.97;110.17;;;;;;;18.60;nan;102357.47;4851582;29;20821;-88
2022/12/30 11:54:20;;;;;;;98.47;51.93;;;;;;;18.64;nan;102344.06;4810598;29;20461;-88
2022/12/30 11:56:57;;;;;;;19.60;11.70;;;;;;;18.72;nan;102343.00;4795805;29;20461;-88
2022/12/30 11:59:35;;;;;;;14.13;7.93;;;;;;;18.77;nan;102343.25;4810505;29;20496;-88
2022/12/30 12:02:14;;;;;;;13.97;6.70;;;;;;;18.82;nan;102335.16;4796821;29;20457;-88
2022/12/30 12:04:43;;;;;;;14.03;7.30;;;;;;;18.83;nan;102323.88;4809880;29;20541;-88
2022/12/30 12:07:16;;;;;;;12.00;6.80;;;;;;;18.91;nan;102320.03;4795186;29;20457;-88
2022/12/30 12:09:57;;;;;;;13.53;6.40;;;;;;;18.88;nan;102309.38;4810688;29;20521;-88
2022/12/30 12:12:27;;;;;;;19.60;8.60;;;;;;;18.95;nan;102307.47;4838740;29;20454;-88
2022/12/30 12:15:19;;;;;;;25.83;9.23;;;;;;;19.06;nan;102314.28;4869023;29;20476;-88
2022/12/30 12:18:04;;;;;;;15.47;8.07;;;;;;;19.12;nan;102313.47;4887727;29;20450;-88
2022/12/30 12:20:54;;;;;;;25.20;12.67;;;;;;;19.18;nan;102316.25;4854448;29;20522;-88
2022/12/30 12:23:55;;;;;;;16.07;8.77;;;;;;;19.23;nan;102307.28;4854667;29;20940;-88
2022/12/30 12:26:28;;;;;;;35.30;20.20;;;;;;;19.24;nan;102298.75;4884862;29;21015;-88
2022/12/30 12:28:56;;;;;;;67.57;40.83;;;;;;;19.33;nan;102299.38;4869055;29;20965;-88
2022/12/30 12:31:52;;;;;;;31.33;19.40;;;;;;;19.34;nan;102292.78;4869021;29;20457;-88
2022/12/30 12:34:23;;;;;;;18.93;11.00;;;;;;;19.46;nan;102302.16;4886464;29;20454;-88
2022/12/30 12:37:21;;;;;;;15.20;6.60;;;;;;;19.60;nan;102298.34;4884095;29;20764;-88
2022/12/30 12:40:12;;;;;;;14.83;5.00;;;;;;;19.66;nan;102289.13;4883998;29;20481;-88
2022/12/30 12:42:52;;;;;;;13.20;4.50;;;;;;;19.73;nan;102285.50;4895240;29;20461;-88
2022/12/30 12:45:47;;;;;;;71.20;42.27;;;;;;;19.76;nan;102272.06;4869813;29;20457;-88
2022/12/30 12:48:28;;;;;;;117.80;60.70;;;;;;;19.79;nan;102276.31;4884129;29;20819;-88
2022/12/30 12:50:59;;;;;;;52.83;26.20;;;;;;;19.82;nan;102282.25;4883612;29;20465;-88
2022/12/30 12:53:46;;;;;;;20.93;8.07;;;;;;;19.82;nan;102278.66;4884074;29;20457;-88
2022/12/30 12:56:34;;;;;;;16.80;4.80;;;;;;;19.81;nan;102272.25;4884112;29;20461;-88
2022/12/30 12:59:15;;;;;;;14.40;5.57;;;;;;;19.81;nan;102276.97;4884740;29;20849;-89
2022/12/30 13:02:24;;;;;;;22.30;7.03;;;;;;;19.92;nan;102277.13;4899790;29;20461;-88
2022/12/30 13:05:32;;;;;;;14.53;5.63;;;;;;;20.09;nan;102273.88;4874964;29;20441;-88
2022/12/30 13:08:30;;;;;;;16.50;6.50;;;;;;;20.15;nan;102273.00;4883689;29;20953;-88
2022/12/30 13:11:20;;;;;;;24.80;12.40;;;;;;;20.20;nan;102262.94;4883304;29;20476;-88
2022/12/30 13:14:28;;;;;;;15.13;6.57;;;;;;;20.24;nan;102271.66;4884860;29;20481;-87
2022/12/30 13:16:59;;;;;;;15.53;4.87;;;;;;;20.24;nan;102261.41;4883084;29;20477;-88
2022/12/30 13:19:32;;;;;;;11.00;3.87;;;;;;;20.30;nan;102268.00;4852573;29;20477;-87
2022/12/30 13:22:05;;;;;;;15.30;4.63;;;;;;;20.26;nan;102263.97;4853317;29;20461;-88
2022/12/30 13:24:53;;;;;;;11.67;4.00;;;;;;;20.10;nan;102265.31;4873293;29;20549;-88
2022/12/30 13:27:29;;;;;;;18.37;4.60;;;;;;;20.03;nan;102247.81;4885807;29;20680;-87